createdAt,value
2022-08-01T00:00:09.856Z,95.45
2022-08-01T00:02:39.263Z,95.60
2022-08-01T00:05:07.878Z,95.65
2022-08-01T00:07:35.905Z,95.95
2022-08-01T00:10:09.721Z,96.35
2022-08-01T00:12:39.385Z,96.03
2022-08-01T00:15:09.104Z,96.20
2022-08-01T00:17:36.460Z,96.27
2022-08-01T00:20:12.758Z,96.31
2022-08-01T00:22:39.887Z,96.22
2022-08-01T00:25:12.502Z,95.96
2022-08-01T00:27:39.423Z,96.13
2022-08-01T00:30:13.637Z,96.23
2022-08-01T00:32:45.142Z,96.10
2022-08-01T00:35:12.414Z,96.35
2022-08-01T00:37:39.291Z,96.26
2022-08-01T00:40:08.197Z,96.32
2022-08-01T00:42:40.258Z,96.18
2022-08-01T00:45:10.537Z,96.20
2022-08-01T00:47:37.690Z,96.90
2022-08-01T00:50:05.745Z,97.44
2022-08-01T00:52:34.708Z,97.38
2022-08-01T00:55:04.342Z,97.13
2022-08-01T00:58:02.300Z,96.88
2022-08-01T01:00:18.910Z,96.62
2022-08-01T01:02:54.278Z,96.92
2022-08-01T01:05:24.362Z,97.10
2022-08-01T01:08:09.025Z,97.04
2022-08-01T01:10:47.482Z,97.07
2022-08-01T01:13:21.670Z,97.01
2022-08-01T01:16:11.360Z,97.07
2022-08-01T01:19:01.531Z,97.49
2022-08-01T01:22:18.820Z,98.37
2022-08-01T01:25:13.007Z,98.06
2022-08-01T01:28:04.628Z,98.04
2022-08-01T01:30:34.070Z,98.06
2022-08-01T01:33:06.823Z,97.89
2022-08-01T01:35:42.933Z,97.92
2022-08-01T01:38:16.031Z,97.93
2022-08-01T01:40:44.773Z,98.01
2022-08-01T01:43:13.231Z,97.72
2022-08-01T01:45:42.459Z,98.14
2022-08-01T01:48:13.868Z,98.11
2022-08-01T01:50:43.362Z,98.06
2022-08-01T01:53:15.009Z,98.22
2022-08-01T01:55:49.329Z,97.81
2022-08-01T01:58:18.691Z,97.48
2022-08-01T02:00:47.791Z,97.63
2022-08-01T02:03:17.088Z,97.65
2022-08-01T02:05:45.014Z,97.61
2022-08-01T02:08:15.604Z,97.54
2022-08-01T02:11:05.399Z,97.54
2022-08-01T02:13:34.273Z,97.59
2022-08-01T02:16:03.139Z,97.65
2022-08-01T02:18:30.351Z,97.30
2022-08-01T02:21:00.144Z,97.10
2022-08-01T02:23:34.957Z,97.05
2022-08-01T02:26:09.389Z,97.06
2022-08-01T02:28:46.748Z,96.92
2022-08-01T02:31:18.097Z,97.15
2022-08-01T02:33:49.336Z,97.17
2022-08-01T02:36:30.276Z,97.71
2022-08-01T02:39:07.517Z,97.82
2022-08-01T02:41:39.433Z,97.42
2022-08-01T02:44:11.264Z,97.46
2022-08-01T02:46:42.045Z,97.22
2022-08-01T02:49:11.443Z,97.16
2022-08-01T02:51:40.922Z,97.22
2022-08-01T02:54:11.004Z,97.42
2022-08-01T02:56:39.315Z,97.60
2022-08-01T02:59:10.372Z,97.61
2022-08-01T03:01:42.144Z,97.50
2022-08-01T03:04:11.793Z,97.33
2022-08-01T03:06:40.201Z,97.29
2022-08-01T03:09:12.779Z,97.16
2022-08-01T03:11:42.847Z,97.12
2022-08-01T03:14:12.751Z,97.21
2022-08-01T03:16:43.129Z,96.81
2022-08-01T03:19:12.722Z,96.75
2022-08-01T03:21:41.522Z,97.04
2022-08-01T03:24:12.716Z,97.04
2022-08-01T03:26:40.442Z,97.19
2022-08-01T03:29:13.663Z,97.18
2022-08-01T03:31:44.622Z,97.22
2022-08-01T03:34:11.925Z,97.20
2022-08-01T03:36:50.074Z,97.30
2022-08-01T03:39:20.185Z,97.30
2022-08-01T03:41:57.110Z,97.35
2022-08-01T03:44:29.809Z,97.09
2022-08-01T03:47:03.443Z,96.87
2022-08-01T03:49:33.542Z,96.95
2022-08-01T03:52:05.775Z,96.81
2022-08-01T03:54:36.776Z,96.88
2022-08-01T03:57:04.022Z,96.92
2022-08-01T03:59:32.986Z,96.99
2022-08-01T04:02:00.196Z,97.10
2022-08-01T04:04:27.237Z,96.94
2022-08-01T04:06:55.193Z,97.17
2022-08-01T04:09:23.175Z,97.17
2022-08-01T04:11:51.233Z,97.06
2022-08-01T04:14:18.146Z,97.16
2022-08-01T04:16:45.068Z,97.05
2022-08-01T04:19:12.705Z,96.66
2022-08-01T04:21:39.716Z,96.34
2022-08-01T04:24:14.093Z,96.53
2022-08-01T04:26:44.512Z,96.83
2022-08-01T04:29:12.909Z,96.94
2022-08-01T04:31:43.274Z,96.51
2022-08-01T04:34:13.171Z,96.42
2022-08-01T04:36:43.063Z,96.58
2022-08-01T04:39:11.082Z,96.57
2022-08-01T04:41:39.611Z,96.35
2022-08-01T04:44:07.906Z,96.38
2022-08-01T04:46:36.061Z,96.32
2022-08-01T04:49:05.908Z,96.46
2022-08-01T04:51:32.825Z,96.03
2022-08-01T04:53:59.811Z,95.97
2022-08-01T04:56:26.698Z,95.70
2022-08-01T04:59:13.891Z,94.99
2022-08-01T05:01:51.837Z,94.56
2022-08-01T05:04:19.443Z,94.09
2022-08-01T05:06:46.280Z,93.47
2022-08-01T05:09:13.283Z,92.58
2022-08-01T05:11:40.171Z,92.07
2022-08-01T05:14:07.673Z,91.05
2022-08-01T05:16:34.617Z,90.09
2022-08-01T05:19:04.644Z,88.90
2022-08-01T05:21:34.623Z,89.05
2022-08-01T05:24:01.772Z,88.71
2022-08-01T05:26:29.102Z,88.46
2022-08-01T05:28:56.065Z,88.24
2022-08-01T05:31:23.011Z,88.07
2022-08-01T05:33:50.208Z,87.63
2022-08-01T05:36:17.153Z,87.25
2022-08-01T05:38:44.065Z,86.93
2022-08-01T05:41:12.041Z,85.96
2022-08-01T05:43:38.951Z,85.40
2022-08-01T05:46:05.847Z,84.33
2022-08-01T05:48:32.765Z,84.37
2022-08-01T05:50:59.753Z,83.87
2022-08-01T05:53:27.584Z,83.58
2022-08-01T05:55:54.509Z,81.23
2022-08-01T05:58:21.970Z,80.73
2022-08-01T06:00:48.893Z,79.47
2022-08-01T06:03:15.836Z,79.03
2022-08-01T06:05:42.688Z,79.17
2022-08-01T06:08:09.709Z,78.33
2022-08-01T06:10:37.066Z,78.27
2022-08-01T06:13:04.159Z,78.05
2022-08-01T06:15:32.360Z,78.03
2022-08-01T06:17:59.814Z,76.01
2022-08-01T06:20:27.686Z,73.86
2022-08-01T06:22:55.577Z,73.83
2022-08-01T06:25:23.560Z,72.42
2022-08-01T06:27:50.880Z,71.32
2022-08-01T06:30:18.014Z,67.72
2022-08-01T06:32:44.898Z,69.11
2022-08-01T06:35:11.956Z,67.48
2022-08-01T06:37:38.956Z,66.14
2022-08-01T06:40:16.633Z,66.52
2022-08-01T06:42:44.367Z,65.49
2022-08-01T06:45:13.487Z,65.63
2022-08-01T06:47:41.632Z,64.89
2022-08-01T06:50:11.319Z,63.78
2022-08-01T06:52:38.991Z,63.51
2022-08-01T06:55:06.379Z,62.98
2022-08-01T06:57:33.934Z,63.74
2022-08-01T07:00:12.164Z,62.92
2022-08-01T07:02:39.191Z,62.16
2022-08-01T07:05:06.729Z,61.38
2022-08-01T07:07:33.604Z,61.51
2022-08-01T07:10:00.782Z,59.46
2022-08-01T07:12:27.684Z,58.36
2022-08-01T07:14:57.745Z,58.50
2022-08-01T07:17:24.580Z,59.61
2022-08-01T07:19:51.647Z,59.13
2022-08-01T07:22:23.613Z,58.24
2022-08-01T07:24:54.450Z,56.66
2022-08-01T07:27:25.540Z,57.25
2022-08-01T07:29:53.659Z,56.13
2022-08-01T07:32:20.805Z,53.39
2022-08-01T07:34:47.731Z,54.28
2022-08-01T07:37:14.625Z,53.20
2022-08-01T07:39:41.805Z,52.45
2022-08-01T07:42:08.905Z,51.24
2022-08-01T07:44:36.458Z,52.35
2022-08-01T07:47:04.147Z,53.23
2022-08-01T07:49:33.907Z,52.45
2022-08-01T07:52:04.866Z,50.60
2022-08-01T07:54:34.401Z,50.53
2022-08-01T07:57:02.739Z,49.84
2022-08-01T07:59:30.644Z,51.21
2022-08-01T08:01:57.765Z,50.07
2022-08-01T08:04:24.834Z,50.11
2022-08-01T08:06:51.907Z,49.92
2022-08-01T08:09:18.949Z,49.55
2022-08-01T08:11:48.174Z,49.02
2022-08-01T08:14:16.852Z,47.91
2022-08-01T08:16:44.936Z,46.99
2022-08-01T08:19:12.963Z,46.53
2022-08-01T08:21:40.587Z,46.52
2022-08-01T08:24:25.968Z,45.85
2022-08-01T08:26:59.381Z,46.10
2022-08-01T08:29:28.558Z,43.68
2022-08-01T08:31:58.952Z,42.31
2022-08-01T08:34:27.383Z,43.88
2022-08-01T08:36:56.337Z,42.08
2022-08-01T08:39:24.127Z,41.45
2022-08-01T08:41:51.010Z,39.91
2022-08-01T08:44:19.490Z,40.66
2022-08-01T08:46:49.087Z,40.62
2022-08-01T08:49:28.082Z,42.15
2022-08-01T08:52:05.402Z,42.54
2022-08-01T08:54:33.585Z,42.67
2022-08-01T08:57:02.058Z,43.06
2022-08-01T08:59:29.693Z,43.02
2022-08-01T09:01:57.790Z,43.76
2022-08-01T09:04:26.825Z,44.17
2022-08-01T09:06:55.586Z,45.46
2022-08-01T09:09:23.228Z,44.29
2022-08-01T09:11:57.555Z,45.57
2022-08-01T09:14:28.399Z,45.89
2022-08-01T09:17:07.780Z,45.87
2022-08-01T09:19:42.032Z,45.62
2022-08-01T09:22:12.045Z,44.73
2022-08-01T09:24:40.999Z,44.46
2022-08-01T09:27:22.773Z,45.81
2022-08-01T09:30:01.084Z,45.52
2022-08-01T09:32:35.238Z,46.06
2022-08-01T09:35:30.684Z,45.66
2022-08-01T09:38:19.077Z,45.57
2022-08-01T09:40:52.102Z,45.29
2022-08-01T09:43:20.980Z,44.14
2022-08-01T09:45:50.537Z,44.82
2022-08-01T09:48:20.647Z,43.59
2022-08-01T09:50:52.672Z,44.24
2022-08-01T09:53:24.467Z,43.63
2022-08-01T09:56:10.260Z,42.81
2022-08-01T09:59:00.510Z,42.83
2022-08-01T10:01:35.921Z,41.72
2022-08-01T10:04:11.379Z,42.41
2022-08-01T10:06:40.043Z,42.21
2022-08-01T10:09:08.916Z,42.87
2022-08-01T10:11:40.285Z,43.25
2022-08-01T10:14:08.455Z,42.86
2022-08-01T10:16:40.296Z,42.38
2022-08-01T10:19:14.886Z,42.97
2022-08-01T10:21:58.390Z,43.75
2022-08-01T10:24:29.479Z,43.51
2022-08-01T10:27:08.117Z,44.05
2022-08-01T10:29:46.074Z,42.18
2022-08-01T10:32:25.705Z,42.74
2022-08-01T10:34:56.333Z,41.07
2022-08-01T10:37:23.875Z,41.06
2022-08-01T10:40:27.342Z,40.43
2022-08-01T10:42:46.069Z,39.84
2022-08-01T10:45:16.367Z,38.96
2022-08-01T10:47:54.579Z,36.26
2022-08-01T10:50:32.765Z,34.92
2022-08-01T10:53:15.293Z,34.22
2022-08-01T10:56:02.566Z,33.04
2022-08-01T10:58:39.783Z,31.28
2022-08-01T11:01:27.954Z,32.13
2022-08-01T11:04:15.980Z,32.70
2022-08-01T11:07:06.782Z,32.83
2022-08-01T11:09:51.682Z,31.13
2022-08-01T11:12:24.430Z,32.36
2022-08-01T11:15:02.509Z,31.71
2022-08-01T11:17:49.006Z,31.36
2022-08-01T11:20:24.740Z,29.60
2022-08-01T11:23:06.055Z,30.19
2022-08-01T11:26:06.323Z,30.77
2022-08-01T11:28:32.639Z,31.56
2022-08-01T11:31:11.835Z,31.60
2022-08-01T11:33:41.450Z,32.94
2022-08-01T11:36:11.758Z,32.95
2022-08-01T11:38:39.842Z,32.61
2022-08-01T11:41:21.124Z,32.06
2022-08-01T11:44:06.687Z,31.01
2022-08-01T11:46:46.646Z,29.33
2022-08-01T11:49:39.165Z,27.44
2022-08-01T11:52:17.157Z,25.33
2022-08-01T11:54:50.230Z,24.91
2022-08-01T11:57:34.599Z,23.80
2022-08-01T12:00:16.609Z,23.60
2022-08-01T12:02:45.680Z,23.39
2022-08-01T12:05:17.705Z,23.69
2022-08-01T12:07:47.381Z,24.78
2022-08-01T12:10:22.698Z,26.31
2022-08-01T12:13:04.917Z,28.61
2022-08-01T12:15:34.796Z,29.61
2022-08-01T12:18:10.800Z,31.70
2022-08-01T12:20:55.664Z,32.08
2022-08-01T12:23:24.111Z,33.14
2022-08-01T12:25:54.667Z,31.12
2022-08-01T12:28:22.401Z,27.65
2022-08-01T12:30:50.716Z,26.65
2022-08-01T12:33:22.125Z,28.75
2022-08-01T12:35:49.798Z,29.08
2022-08-01T12:38:18.514Z,29.58
2022-08-01T12:40:52.913Z,30.69
2022-08-01T12:43:28.581Z,31.38
2022-08-01T12:45:59.737Z,32.40
2022-08-01T12:48:27.881Z,32.07
2022-08-01T12:50:58.885Z,32.02
2022-08-01T12:53:39.754Z,31.33
2022-08-01T12:56:10.654Z,31.44
2022-08-01T12:58:37.808Z,31.39
2022-08-01T13:01:10.868Z,30.44
2022-08-01T13:03:38.492Z,27.90
2022-08-01T13:06:15.959Z,25.35
2022-08-01T13:08:44.568Z,26.04
2022-08-01T13:11:17.616Z,24.21
2022-08-01T13:13:50.571Z,25.01
2022-08-01T13:16:31.035Z,26.49
2022-08-01T13:19:06.937Z,27.71
2022-08-01T13:21:54.567Z,27.68
2022-08-01T13:24:30.339Z,26.93
2022-08-01T13:27:04.493Z,25.11
2022-08-01T13:29:33.708Z,23.46
2022-08-01T13:32:12.648Z,24.13
2022-08-01T13:35:08.663Z,23.79
2022-08-01T13:37:39.011Z,24.56
2022-08-01T13:40:08.532Z,23.66
2022-08-01T13:42:35.975Z,24.67
2022-08-01T13:45:04.551Z,23.79
2022-08-01T13:48:03.779Z,24.16
2022-08-01T13:50:28.802Z,23.23
2022-08-01T13:52:55.757Z,23.92
2022-08-01T13:55:22.687Z,24.23
2022-08-01T13:57:51.166Z,23.90
2022-08-01T14:00:18.300Z,25.82
2022-08-01T14:02:45.331Z,26.15
2022-08-01T14:05:12.421Z,28.18
2022-08-01T14:07:39.384Z,29.17
2022-08-01T14:10:19.435Z,29.38
2022-08-01T14:12:50.880Z,30.83
2022-08-01T14:15:36.501Z,31.58
2022-08-01T14:18:06.710Z,31.94
2022-08-01T14:20:35.297Z,32.33
2022-08-01T14:23:02.586Z,33.11
2022-08-01T14:26:02.978Z,32.37
2022-08-01T14:28:17.019Z,31.23
2022-08-01T14:30:44.202Z,29.08
2022-08-01T14:33:12.207Z,26.42
2022-08-01T14:36:01.768Z,25.09
2022-08-01T14:38:31.556Z,25.37
2022-08-01T14:41:00.723Z,24.80
2022-08-01T14:43:32.848Z,26.38
2022-08-01T14:46:04.655Z,24.98
2022-08-01T14:48:36.795Z,26.19
2022-08-01T14:51:04.181Z,26.38
2022-08-01T14:53:34.259Z,26.54
2022-08-01T14:56:04.840Z,25.05
2022-08-01T14:58:31.845Z,26.20
2022-08-01T15:00:59.572Z,27.17
2022-08-01T15:03:26.860Z,27.18
2022-08-01T15:05:54.209Z,27.03
2022-08-01T15:08:21.083Z,28.06
2022-08-01T15:10:47.986Z,27.47
2022-08-01T15:13:14.897Z,26.41
2022-08-01T15:15:41.809Z,25.03
2022-08-01T15:18:08.778Z,25.58
2022-08-01T15:20:36.136Z,25.00
2022-08-01T15:23:03.141Z,24.69
2022-08-01T15:25:41.429Z,25.47
2022-08-01T15:28:12.448Z,25.54
2022-08-01T15:30:40.012Z,26.12
2022-08-01T15:33:07.340Z,25.90
2022-08-01T15:35:34.742Z,25.94
2022-08-01T15:38:01.881Z,27.04
2022-08-01T15:40:29.469Z,28.44
2022-08-01T15:42:56.531Z,27.21
2022-08-01T15:45:46.502Z,27.29
2022-08-01T15:48:10.536Z,27.61
2022-08-01T15:50:39.348Z,28.66
2022-08-01T15:53:07.418Z,29.54
2022-08-01T15:55:38.538Z,31.47
2022-08-01T15:58:06.213Z,30.93
2022-08-01T16:00:38.708Z,31.47
2022-08-01T16:03:07.931Z,32.07
2022-08-01T16:05:41.029Z,33.37
2022-08-01T16:08:12.402Z,33.23
2022-08-01T16:10:39.456Z,34.11
2022-08-01T16:13:07.132Z,34.23
2022-08-01T16:15:39.164Z,34.25
2022-08-01T16:18:07.948Z,34.31
2022-08-01T16:20:35.397Z,34.64
2022-08-01T16:23:02.611Z,34.60
2022-08-01T16:25:29.539Z,35.20
2022-08-01T16:27:56.978Z,35.74
2022-08-01T16:30:24.961Z,35.90
2022-08-01T16:32:59.365Z,37.02
2022-08-01T16:35:32.670Z,36.21
2022-08-01T16:38:04.573Z,36.26
2022-08-01T16:40:32.032Z,36.37
2022-08-01T16:43:14.709Z,36.46
2022-08-01T16:45:43.229Z,36.97
2022-08-01T16:48:18.595Z,36.59
2022-08-01T16:50:49.421Z,37.05
2022-08-01T16:53:18.216Z,36.75
2022-08-01T16:55:49.777Z,36.24
2022-08-01T16:58:23.511Z,36.99
2022-08-01T17:00:56.961Z,39.16
2022-08-01T17:03:51.620Z,38.33
2022-08-01T17:06:15.327Z,38.88
2022-08-01T17:08:46.469Z,38.91
2022-08-01T17:11:14.610Z,39.63
2022-08-01T17:13:41.642Z,39.59
2022-08-01T17:16:09.402Z,40.15
2022-08-01T17:18:36.407Z,40.91
2022-08-01T17:21:03.492Z,40.80
2022-08-01T17:23:31.938Z,41.01
2022-08-01T17:25:59.415Z,41.21
2022-08-01T17:28:26.414Z,41.69
2022-08-01T17:30:53.486Z,42.30
2022-08-01T17:33:20.648Z,42.67
2022-08-01T17:35:47.596Z,43.18
2022-08-01T17:38:14.720Z,43.36
2022-08-01T17:40:41.771Z,43.59
2022-08-01T17:43:09.045Z,43.55
2022-08-01T17:45:50.246Z,44.62
2022-08-01T17:48:19.354Z,44.32
2022-08-01T17:50:48.487Z,44.20
2022-08-01T17:53:21.076Z,44.95
2022-08-01T17:55:53.547Z,45.11
2022-08-01T17:58:33.047Z,46.45
2022-08-01T18:01:10.223Z,46.83
2022-08-01T18:03:40.922Z,46.39
2022-08-01T18:06:09.456Z,46.96
2022-08-01T18:08:36.478Z,47.04
2022-08-01T18:11:03.602Z,48.05
2022-08-01T18:13:30.501Z,48.91
2022-08-01T18:15:57.722Z,48.56
2022-08-01T18:18:33.043Z,48.59
2022-08-01T18:21:01.933Z,49.04
2022-08-01T18:23:29.093Z,49.27
2022-08-01T18:25:55.990Z,49.69
2022-08-01T18:28:33.676Z,50.08
2022-08-01T18:31:03.733Z,50.68
2022-08-01T18:33:30.735Z,51.56
2022-08-01T18:36:03.880Z,51.87
2022-08-01T18:38:35.242Z,52.29
2022-08-01T18:41:05.968Z,53.58
2022-08-01T18:43:32.870Z,53.29
2022-08-01T18:46:01.340Z,53.50
2022-08-01T18:48:28.206Z,53.36
2022-08-01T18:50:55.346Z,53.84
2022-08-01T18:53:23.991Z,53.63
2022-08-01T18:55:51.180Z,53.51
2022-08-01T18:58:18.682Z,53.58
2022-08-01T19:00:45.647Z,53.82
2022-08-01T19:03:13.788Z,54.56
2022-08-01T19:05:40.774Z,54.96
2022-08-01T19:08:08.168Z,55.47
2022-08-01T19:10:39.869Z,56.79
2022-08-01T19:13:08.169Z,58.82
2022-08-01T19:15:36.030Z,57.49
2022-08-01T19:18:04.223Z,58.65
2022-08-01T19:20:31.359Z,59.68
2022-08-01T19:22:58.606Z,59.39
2022-08-01T19:25:25.894Z,58.17
2022-08-01T19:27:56.327Z,58.88
2022-08-01T19:30:23.800Z,58.96
2022-08-01T19:32:51.177Z,58.90
2022-08-01T19:35:18.111Z,58.93
2022-08-01T19:37:50.891Z,59.32
2022-08-01T19:40:27.546Z,59.21
2022-08-01T19:42:59.681Z,60.58
2022-08-01T19:45:29.868Z,61.55
2022-08-01T19:47:58.017Z,60.53
2022-08-01T19:50:29.171Z,61.61
2022-08-01T19:52:57.697Z,61.45
2022-08-01T19:55:25.403Z,62.80
2022-08-01T20:00:42.762Z,61.53
2022-08-01T20:03:10.177Z,60.52
2022-08-01T20:05:38.800Z,60.09
2022-08-01T20:08:09.823Z,60.07
2022-08-01T20:10:39.947Z,60.28
2022-08-01T20:13:09.644Z,60.49
2022-08-01T20:15:38.480Z,60.67
2022-08-01T20:18:06.098Z,61.26
2022-08-01T20:20:35.328Z,61.56
2022-08-01T20:23:03.429Z,62.00
2022-08-01T20:25:40.228Z,61.94
2022-08-01T20:28:09.774Z,62.05
2022-08-01T20:30:37.630Z,62.65
2022-08-01T20:33:06.842Z,62.66
2022-08-01T20:35:51.033Z,62.78
2022-08-01T20:38:27.564Z,63.38
2022-08-01T20:40:59.987Z,64.00
2022-08-01T20:43:27.750Z,64.65
2022-08-01T20:45:55.802Z,64.52
2022-08-01T20:48:24.653Z,64.45
2022-08-01T20:51:10.283Z,64.29
2022-08-01T20:53:41.917Z,65.36
2022-08-01T20:56:29.980Z,64.18
2022-08-01T20:59:55.144Z,63.29
2022-08-01T21:02:11.763Z,64.52
2022-08-01T21:04:47.121Z,63.95
2022-08-01T21:07:28.802Z,65.74
2022-08-01T21:10:11.770Z,65.72
2022-08-01T21:13:00.326Z,65.82
2022-08-01T21:15:33.321Z,66.14
2022-08-01T21:18:15.184Z,66.67
2022-08-01T21:21:02.988Z,66.95
2022-08-01T21:24:05.789Z,68.16
2022-08-01T21:26:35.887Z,68.44
2022-08-01T21:29:06.905Z,68.11
2022-08-01T21:31:40.941Z,67.63
2022-08-01T21:34:09.278Z,67.68
2022-08-01T21:36:36.776Z,68.35
2022-08-01T21:39:07.580Z,68.60
2022-08-01T21:42:03.964Z,68.88
2022-08-01T21:44:28.542Z,69.35
2022-08-01T21:47:00.003Z,70.10
2022-08-01T21:49:27.805Z,70.21
2022-08-01T21:52:01.289Z,70.50
2022-08-01T21:54:41.607Z,70.59
2022-08-01T21:57:11.492Z,71.28
2022-08-01T21:59:59.707Z,72.12
2022-08-01T22:02:36.697Z,72.10
2022-08-01T22:05:10.484Z,71.94
2022-08-01T22:07:44.908Z,72.62
2022-08-01T22:10:16.569Z,72.85
2022-08-01T22:12:44.367Z,73.24
2022-08-01T22:15:12.731Z,72.79
2022-08-01T22:17:40.758Z,72.37
2022-08-01T22:20:09.513Z,73.12
2022-08-01T22:22:50.744Z,72.69
2022-08-01T22:25:20.607Z,71.89
2022-08-01T22:28:06.312Z,71.60
2022-08-01T22:30:41.743Z,71.92
2022-08-01T22:33:16.056Z,71.79
2022-08-01T22:35:47.232Z,71.82
2022-08-01T22:38:14.549Z,72.10
2022-08-01T22:40:50.042Z,72.30
2022-08-01T22:43:38.285Z,73.16
2022-08-01T22:46:23.077Z,73.53
2022-08-01T22:48:53.772Z,73.89
2022-08-01T22:51:54.682Z,73.60
2022-08-01T22:54:39.393Z,74.93
2022-08-01T22:57:12.441Z,74.67
2022-08-01T22:59:53.626Z,75.66
2022-08-01T23:02:21.988Z,75.10
2022-08-01T23:04:55.164Z,74.93
2022-08-01T23:07:31.524Z,74.70
2022-08-01T23:09:58.734Z,74.84
2022-08-01T23:12:27.650Z,74.85
2022-08-01T23:14:57.027Z,74.95
2022-08-01T23:17:28.840Z,74.83
2022-08-01T23:19:58.973Z,75.19
2022-08-01T23:22:36.321Z,74.92
2022-08-01T23:25:08.885Z,75.04
2022-08-01T23:27:54.270Z,75.76
2022-08-01T23:30:31.045Z,76.23
2022-08-01T23:32:58.343Z,76.64
2022-08-01T23:35:26.252Z,77.03
2022-08-01T23:37:53.905Z,77.48
2022-08-01T23:40:21.075Z,77.08
2022-08-01T23:42:55.875Z,77.86
2022-08-01T23:45:23.415Z,78.00
2022-08-01T23:47:50.719Z,78.02
2022-08-01T23:50:17.648Z,78.26
2022-08-01T23:52:48.369Z,78.71
2022-08-01T23:55:17.317Z,79.93
2022-08-01T23:57:44.443Z,80.41
